sensor_id;sensor_type;location;lat;lon;timestamp;pressure;altitude;pressure_sealevel;temperature;humidity
86034;BME280;76606;52.388;16.914;2024-03-08T00:10:09;101690.0;;;-0.64;83.65
86034;BME280;76606;52.388;16.914;2024-03-08T00:25:09;101688.0;;;-0.75;83.66
86034;BME280;76606;52.388;16.914;2024-03-08T00:40:09;101691.0;;;-0.88;84.36
86034;BME280;76606;52.388;16.914;2024-03-08T00:55:09;101686.0;;;-0.95;85.06
86034;BME280;76606;52.388;16.914;2024-03-08T01:10:09;101675.0;;;-1.07;85.39
86034;BME280;76606;52.388;16.914;2024-03-08T01:25:09;101668.0;;;-1.16;85.57
86034;BME280;76606;52.388;16.914;2024-03-08T01:40:09;101671.0;;;-1.32;86.37
86034;BME280;76606;52.388;16.914;2024-03-08T01:55:09;101658.0;;;-1.43;87.05
86034;BME280;76606;52.388;16.914;2024-03-08T02:10:09;101639.0;;;-1.47;87.2
86034;BME280;76606;52.388;16.914;2024-03-08T02:25:09;101622.0;;;-1.6;87.66
86034;BME280;76606;52.388;16.914;2024-03-08T02:40:09;101621.0;;;-1.64;87.98
86034;BME280;76606;52.388;16.914;2024-03-08T02:55:09;101616.0;;;-1.69;88.4
86034;BME280;76606;52.388;16.914;2024-03-08T03:10:09;101612.0;;;-1.76;88.35
86034;BME280;76606;52.388;16.914;2024-03-08T03:25:09;101613.0;;;-1.92;88.55
86034;BME280;76606;52.388;16.914;2024-03-08T03:40:09;101618.0;;;-1.96;88.9
86034;BME280;76606;52.388;16.914;2024-03-08T03:55:09;101607.0;;;-2.06;90.05
86034;BME280;76606;52.388;16.914;2024-03-08T04:10:09;101598.0;;;-2.2;89.35
86034;BME280;76606;52.388;16.914;2024-03-08T04:25:09;101597.0;;;-2.18;90.46
86034;BME280;76606;52.388;16.914;2024-03-08T04:40:09;101592.0;;;-2.18;90.72
86034;BME280;76606;52.388;16.914;2024-03-08T04:55:09;101584.0;;;-2.36;90.37
86034;BME280;76606;52.388;16.914;2024-03-08T05:10:09;101595.0;;;-2.41;90.92
86034;BME280;76606;52.388;16.914;2024-03-08T05:25:09;101593.0;;;-2.37;90.95
86034;BME280;76606;52.388;16.914;2024-03-08T05:40:09;101596.0;;;-2.33;90.79
86034;BME280;76606;52.388;16.914;2024-03-08T05:55:09;101591.0;;;-2.24;90.75
86034;BME280;76606;52.388;16.914;2024-03-08T06:10:09;101600.0;;;-1.94;90.55
86034;BME280;76606;52.388;16.914;2024-03-08T06:25:09;101605.0;;;-1.73;89.93
86034;BME280;76606;52.388;16.914;2024-03-08T06:40:09;101598.0;;;-1.42;89.4
86034;BME280;76606;52.388;16.914;2024-03-08T06:55:09;101601.0;;;-1.09;88.51
86034;BME280;76606;52.388;16.914;2024-03-08T07:10:09;101593.0;;;-0.82;88.09
86034;BME280;76606;52.388;16.914;2024-03-08T07:25:09;101598.0;;;-0.45;87.27
86034;BME280;76606;52.388;16.914;2024-03-08T07:40:09;101594.0;;;-0.02;85.64
86034;BME280;76606;52.388;16.914;2024-03-08T07:55:09;101574.0;;;0.54;82.36
86034;BME280;76606;52.388;16.914;2024-03-08T08:10:09;101581.0;;;1.12;79.03
86034;BME280;76606;52.388;16.914;2024-03-08T08:25:09;101574.0;;;1.82;76.26
86034;BME280;76606;52.388;16.914;2024-03-08T08:40:09;101574.0;;;2.39;73.98
86034;BME280;76606;52.388;16.914;2024-03-08T08:55:09;101566.0;;;3.04;71.67
86034;BME280;76606;52.388;16.914;2024-03-08T09:10:09;101560.0;;;3.73;68.07
86034;BME280;76606;52.388;16.914;2024-03-08T09:25:09;101541.0;;;4.24;65.23
86034;BME280;76606;52.388;16.914;2024-03-08T09:40:09;101529.0;;;4.82;61.26
86034;BME280;76606;52.388;16.914;2024-03-08T09:55:09;101519.0;;;5.27;59.52
86034;BME280;76606;52.388;16.914;2024-03-08T10:10:09;101500.0;;;5.79;57.34
86034;BME280;76606;52.388;16.914;2024-03-08T10:25:09;101489.0;;;6.25;55.03
86034;BME280;76606;52.388;16.914;2024-03-08T10:40:09;101486.0;;;6.75;55.37
86034;BME280;76606;52.388;16.914;2024-03-08T10:55:09;101475.0;;;7.25;53.8
86034;BME280;76606;52.388;16.914;2024-03-08T11:10:09;101461.0;;;7.72;53.02
86034;BME280;76606;52.388;16.914;2024-03-08T11:25:09;101448.0;;;8.05;51.35
86034;BME280;76606;52.388;16.914;2024-03-08T11:40:09;101424.0;;;12.6;41.58
86034;BME280;76606;52.388;16.914;2024-03-08T11:55:09;101415.0;;;16.46;34.65
86034;BME280;76606;52.388;16.914;2024-03-08T12:10:09;101401.0;;;18.47;30.81
86034;BME280;76606;52.388;16.914;2024-03-08T12:25:09;101375.0;;;19.84;28.62
86034;BME280;76606;52.388;16.914;2024-03-08T12:40:09;101352.0;;;21.49;26.28
86034;BME280;76606;52.388;16.914;2024-03-08T12:55:09;101341.0;;;22.5;24.72
86034;BME280;76606;52.388;16.914;2024-03-08T13:10:09;101321.0;;;22.55;23.96
86034;BME280;76606;52.388;16.914;2024-03-08T13:25:09;101307.0;;;23.54;24.21
86034;BME280;76606;52.388;16.914;2024-03-08T13:40:09;101282.0;;;23.69;23.79
86034;BME280;76606;52.388;16.914;2024-03-08T13:55:09;101267.0;;;24.12;22.72
86034;BME280;76606;52.388;16.914;2024-03-08T14:10:09;101239.0;;;24.57;22.65
86034;BME280;76606;52.388;16.914;2024-03-08T14:25:09;101229.0;;;25.55;22.28
86034;BME280;76606;52.388;16.914;2024-03-08T14:40:09;101221.0;;;25.26;21.8
86034;BME280;76606;52.388;16.914;2024-03-08T14:55:09;101208.0;;;23.62;22.73
86034;BME280;76606;52.388;16.914;2024-03-08T15:10:09;101205.0;;;23.71;22.4
86034;BME280;76606;52.388;16.914;2024-03-08T17:05:09;101149.0;;;8.87;46.51
86034;BME280;76606;52.388;16.914;2024-03-08T17:20:09;101144.0;;;7.92;49.03
86034;BME280;76606;52.388;16.914;2024-03-08T17:35:09;101143.0;;;6.84;52.49
86034;BME280;76606;52.388;16.914;2024-03-08T17:50:09;101138.0;;;6.31;54.34
86034;BME280;76606;52.388;16.914;2024-03-08T18:05:09;101141.0;;;5.75;55.89
86034;BME280;76606;52.388;16.914;2024-03-08T18:20:09;101139.0;;;5.32;56.84
86034;BME280;76606;52.388;16.914;2024-03-08T18:35:09;101134.0;;;5.12;57.26
86034;BME280;76606;52.388;16.914;2024-03-08T18:50:09;101123.0;;;4.85;57.79
86034;BME280;76606;52.388;16.914;2024-03-08T19:05:09;101121.0;;;4.56;58.69
86034;BME280;76606;52.388;16.914;2024-03-08T19:20:09;101116.0;;;4.3;60.02
86034;BME280;76606;52.388;16.914;2024-03-08T19:35:09;101113.0;;;3.97;61.46
86034;BME280;76606;52.388;16.914;2024-03-08T19:50:09;101107.0;;;3.41;63.41
86034;BME280;76606;52.388;16.914;2024-03-08T20:05:09;101105.0;;;3.0;64.74
86034;BME280;76606;52.388;16.914;2024-03-08T20:20:09;101093.0;;;2.99;65.01
86034;BME280;76606;52.388;16.914;2024-03-08T20:35:09;101085.0;;;2.76;65.25
86034;BME280;76606;52.388;16.914;2024-03-08T20:50:09;101076.0;;;2.69;66.19
86034;BME280;76606;52.388;16.914;2024-03-08T21:05:09;101070.0;;;2.76;65.92
86034;BME280;76606;52.388;16.914;2024-03-08T21:20:09;101051.0;;;2.57;66.68
86034;BME280;76606;52.388;16.914;2024-03-08T21:35:09;101045.0;;;2.29;68.01
86034;BME280;76606;52.388;16.914;2024-03-08T21:50:09;101042.0;;;2.29;68.24
86034;BME280;76606;52.388;16.914;2024-03-08T22:05:09;101024.0;;;2.14;68.55
86034;BME280;76606;52.388;16.914;2024-03-08T22:20:09;101012.0;;;2.0;69.98
86034;BME280;76606;52.388;16.914;2024-03-08T22:35:09;101009.0;;;1.79;71.01
86034;BME280;76606;52.388;16.914;2024-03-08T22:50:09;100996.0;;;1.69;71.35
86034;BME280;76606;52.388;16.914;2024-03-08T23:05:09;100993.0;;;1.55;71.99
86034;BME280;76606;52.388;16.914;2024-03-08T23:20:09;100986.0;;;1.36;72.88
86034;BME280;76606;52.388;16.914;2024-03-08T23:35:09;100978.0;;;1.09;73.79
86034;BME280;76606;52.388;16.914;2024-03-08T23:50:09;100989.0;;;0.9700001;74.41
